TAM3601 SBSV-SBCF
Flight info
| Callsign | TAM3601 |
|---|---|
| Flight time | 1h 21m |
| Altitude | 34000 |
| Route | GILDO UZ21 OPTEB |
| Aircraft | A321/M-SDE3FGHIRWY/LB1 |
Departure
| Time | 2026-05-06 20:08 |
|---|---|
| Airport | Deputado Luiz Eduardo Magalhães International Airport (SBSV) |
Arrival
| Time | 2026-05-06 21:29 |
|---|---|
| Airport | Tancredo Neves International Airport (SBCF) |
| Time | Latitude | Longitude | Altitude | Speed | Heading |
|---|---|---|---|---|---|
| 2026-05-06 19:50 | -12.91479 | -38.33289 | 44 ft | 0 kts | 351° |
| 2026-05-06 20:00 | -12.91490 | -38.33287 | 43 ft | 4 kts | 351° |
| 2026-05-06 20:00 | -12.91512 | -38.33285 | 43 ft | 4 kts | 8° |
| 2026-05-06 20:01 | -12.91534 | -38.33294 | 43 ft | 4 kts | 54° |
| 2026-05-06 20:01 | -12.91543 | -38.33312 | 39 ft | 0 kts | 78° |
| 2026-05-06 20:04 | -12.91540 | -38.33301 | 41 ft | 2 kts | 78° |
| 2026-05-06 20:04 | -12.91535 | -38.33276 | 41 ft | 8 kts | 78° |
| 2026-05-06 20:04 | -12.91522 | -38.33210 | 43 ft | 9 kts | 78° |
| 2026-05-06 20:04 | -12.91496 | -38.33159 | 43 ft | 8 kts | 37° |
| 2026-05-06 20:05 | -12.91416 | -38.33142 | 43 ft | 14 kts | 351° |
| 2026-05-06 20:05 | -12.91324 | -38.33162 | 44 ft | 13 kts | 348° |
| 2026-05-06 20:05 | -12.91243 | -38.33179 | 44 ft | 11 kts | 346° |
| 2026-05-06 20:05 | -12.91215 | -38.33230 | 44 ft | 8 kts | 276° |
| 2026-05-06 20:06 | -12.91219 | -38.33289 | 44 ft | 9 kts | 265° |
| 2026-05-06 20:06 | -12.91209 | -38.33350 | 42 ft | 9 kts | 294° |
| 2026-05-06 20:06 | -12.91182 | -38.33414 | 43 ft | 12 kts | 284° |
| 2026-05-06 20:06 | -12.91196 | -38.33526 | 43 ft | 20 kts | 265° |
| 2026-05-06 20:07 | -12.91125 | -38.33573 | 44 ft | 12 kts | 51° |
| 2026-05-06 20:07 | -12.91100 | -38.33466 | 44 ft | 31 kts | 78° |
| 2026-05-06 20:07 | -12.91009 | -38.33010 | 48 ft | 98 kts | 78° |
| 2026-05-06 20:07 | -12.90833 | -38.32130 | 49 ft | 149 kts | 78° |
| 2026-05-06 20:08 | -12.90603 | -38.30973 | 161 ft | 177 kts | 84° |
| 2026-05-06 20:08 | -12.90368 | -38.29793 | 851 ft | 167 kts | 82° |
| 2026-05-06 20:08 | -12.90141 | -38.28638 | 1449 ft | 164 kts | 83° |
| 2026-05-06 20:08 | -12.89936 | -38.27499 | 1945 ft | 165 kts | 88° |
| 2026-05-06 20:09 | -12.90262 | -38.26311 | 1960 ft | 186 kts | 127° |
| 2026-05-06 20:09 | -12.91295 | -38.25468 | 2140 ft | 201 kts | 159° |
| 2026-05-06 20:09 | -12.92744 | -38.25417 | 2263 ft | 226 kts | 196° |
| 2026-05-06 20:09 | -12.94079 | -38.26424 | 2468 ft | 255 kts | 226° |
| 2026-05-06 20:10 | -12.95172 | -38.27916 | 2975 ft | 267 kts | 233° |
| 2026-05-06 20:10 | -12.96191 | -38.29538 | 3651 ft | 273 kts | 236° |
| 2026-05-06 20:10 | -12.97197 | -38.31206 | 4317 ft | 278 kts | 236° |
| 2026-05-06 20:10 | -12.98224 | -38.32901 | 5009 ft | 281 kts | 235° |
| 2026-05-06 20:11 | -12.99274 | -38.34605 | 5696 ft | 284 kts | 235° |
| 2026-05-06 20:11 | -13.00351 | -38.36316 | 6361 ft | 287 kts | 234° |
| 2026-05-06 20:11 | -13.01447 | -38.38037 | 7000 ft | 290 kts | 234° |
| 2026-05-06 20:11 | -13.02462 | -38.39836 | 7628 ft | 295 kts | 245° |
| 2026-05-06 20:12 | -13.03037 | -38.41868 | 8251 ft | 299 kts | 258° |
| 2026-05-06 20:12 | -13.03418 | -38.43973 | 8901 ft | 302 kts | 258° |
| 2026-05-06 20:12 | -13.03800 | -38.46066 | 9524 ft | 304 kts | 258° |
| 2026-05-06 20:12 | -13.04194 | -38.48206 | 10129 ft | 307 kts | 257° |
| 2026-05-06 20:13 | -13.04602 | -38.50408 | 10362 ft | 324 kts | 257° |
| 2026-05-06 20:13 | -13.05038 | -38.52746 | 10483 ft | 343 kts | 258° |
| 2026-05-06 20:13 | -13.05500 | -38.55221 | 10608 ft | 362 kts | 258° |
| 2026-05-06 20:13 | -13.05983 | -38.57815 | 10730 ft | 379 kts | 258° |
| 2026-05-06 20:14 | -13.06487 | -38.60525 | 10853 ft | 395 kts | 258° |
| 2026-05-06 20:14 | -13.07010 | -38.63347 | 11037 ft | 408 kts | 258° |
| 2026-05-06 20:14 | -13.07362 | -38.65253 | 11291 ft | 411 kts | 258° |
| 2026-05-06 20:14 | -13.07894 | -38.68145 | 11745 ft | 414 kts | 258° |
| 2026-05-06 20:15 | -13.08439 | -38.71053 | 12217 ft | 416 kts | 256° |
| 2026-05-06 20:15 | -13.09733 | -38.74753 | 12815 ft | 417 kts | 242° |
| 2026-05-06 20:15 | -13.11221 | -38.77312 | 13288 ft | 418 kts | 236° |
| 2026-05-06 20:15 | -13.12785 | -38.79831 | 13756 ft | 420 kts | 237° |
| 2026-05-06 20:16 | -13.13845 | -38.81542 | 14040 ft | 421 kts | 237° |
| 2026-05-06 20:16 | -13.15416 | -38.84088 | 14440 ft | 423 kts | 237° |
| 2026-05-06 20:16 | -13.16989 | -38.86645 | 14842 ft | 425 kts | 237° |
| 2026-05-06 20:16 | -13.18567 | -38.89217 | 15236 ft | 427 kts | 237° |
| 2026-05-06 20:17 | -13.20153 | -38.91803 | 15624 ft | 429 kts | 237° |
| 2026-05-06 20:17 | -13.21749 | -38.94405 | 16009 ft | 431 kts | 237° |
| 2026-05-06 20:17 | -13.23329 | -38.96979 | 16374 ft | 433 kts | 237° |
| 2026-05-06 20:17 | -13.24943 | -38.99602 | 16751 ft | 435 kts | 237° |
| 2026-05-06 20:18 | -13.26561 | -39.02233 | 17136 ft | 437 kts | 237° |
| 2026-05-06 20:18 | -13.28188 | -39.04880 | 17512 ft | 439 kts | 237° |
| 2026-05-06 20:18 | -13.29820 | -39.07537 | 17893 ft | 441 kts | 237° |
| 2026-05-06 20:18 | -13.31465 | -39.10215 | 18258 ft | 444 kts | 237° |
| 2026-05-06 20:19 | -13.33116 | -39.12902 | 18590 ft | 446 kts | 237° |
| 2026-05-06 20:19 | -13.34773 | -39.15600 | 18939 ft | 447 kts | 237° |
| 2026-05-06 20:19 | -13.36433 | -39.18305 | 19283 ft | 448 kts | 237° |
| 2026-05-06 20:19 | -13.38094 | -39.21016 | 19627 ft | 449 kts | 237° |
| 2026-05-06 20:20 | -13.39760 | -39.23739 | 19963 ft | 450 kts | 238° |
| 2026-05-06 20:20 | -13.41423 | -39.26461 | 20302 ft | 451 kts | 238° |
| 2026-05-06 20:20 | -13.43068 | -39.29156 | 20637 ft | 451 kts | 237° |
| 2026-05-06 20:20 | -13.44947 | -39.31744 | 20952 ft | 453 kts | 228° |
| 2026-05-06 20:21 | -13.47222 | -39.33987 | 21254 ft | 455 kts | 219° |
| 2026-05-06 20:21 | -13.49772 | -39.35922 | 21566 ft | 456 kts | 216° |
| 2026-05-06 20:21 | -13.52346 | -39.37839 | 21867 ft | 458 kts | 216° |
| 2026-05-06 20:21 | -13.54928 | -39.39768 | 22168 ft | 459 kts | 216° |
| 2026-05-06 20:22 | -13.57513 | -39.41705 | 22454 ft | 461 kts | 216° |
| 2026-05-06 20:22 | -13.60111 | -39.43655 | 22738 ft | 463 kts | 216° |
| 2026-05-06 20:22 | -13.62718 | -39.45609 | 23025 ft | 464 kts | 216° |
| 2026-05-06 20:22 | -13.65334 | -39.47570 | 23306 ft | 466 kts | 217° |
| 2026-05-06 20:23 | -13.67960 | -39.49540 | 23567 ft | 468 kts | 217° |
| 2026-05-06 20:23 | -13.70592 | -39.51516 | 23842 ft | 469 kts | 217° |
| 2026-05-06 20:23 | -13.73230 | -39.53499 | 24090 ft | 471 kts | 217° |
| 2026-05-06 20:23 | -13.75881 | -39.55493 | 24324 ft | 472 kts | 217° |
| 2026-05-06 20:24 | -13.78531 | -39.57486 | 24563 ft | 473 kts | 217° |
| 2026-05-06 20:24 | -13.81196 | -39.59487 | 24800 ft | 474 kts | 216° |
| 2026-05-06 20:24 | -13.83856 | -39.61483 | 25114 ft | 473 kts | 216° |
| 2026-05-06 20:24 | -13.86513 | -39.63476 | 25440 ft | 472 kts | 216° |
| 2026-05-06 20:25 | -13.89161 | -39.65465 | 25770 ft | 471 kts | 216° |
| 2026-05-06 20:25 | -13.91808 | -39.67454 | 26114 ft | 470 kts | 216° |
| 2026-05-06 20:25 | -13.94446 | -39.69439 | 26472 ft | 469 kts | 216° |
| 2026-05-06 20:25 | -13.97075 | -39.71417 | 26832 ft | 467 kts | 216° |
| 2026-05-06 20:26 | -13.99701 | -39.73393 | 27187 ft | 466 kts | 216° |
| 2026-05-06 20:26 | -14.02282 | -39.75336 | 27532 ft | 465 kts | 216° |
| 2026-05-06 20:26 | -14.04891 | -39.77299 | 27885 ft | 464 kts | 216° |
| 2026-05-06 20:26 | -14.07495 | -39.79261 | 28238 ft | 463 kts | 216° |
| 2026-05-06 20:27 | -14.10098 | -39.81226 | 28574 ft | 462 kts | 216° |
| 2026-05-06 20:27 | -14.12689 | -39.83182 | 28936 ft | 461 kts | 216° |
| 2026-05-06 20:27 | -14.15281 | -39.85135 | 29280 ft | 460 kts | 216° |
| 2026-05-06 20:27 | -14.17865 | -39.87080 | 29631 ft | 459 kts | 216° |
| 2026-05-06 20:28 | -14.20442 | -39.89022 | 29967 ft | 458 kts | 216° |
| 2026-05-06 20:28 | -14.23017 | -39.90965 | 30290 ft | 457 kts | 216° |
| 2026-05-06 20:28 | -14.25544 | -39.92872 | 30584 ft | 456 kts | 216° |
| 2026-05-06 20:28 | -14.28102 | -39.94801 | 30898 ft | 454 kts | 216° |
| 2026-05-06 20:29 | -14.30648 | -39.96720 | 31223 ft | 452 kts | 216° |
| 2026-05-06 20:29 | -14.33180 | -39.98635 | 31554 ft | 450 kts | 216° |
| 2026-05-06 20:29 | -14.35699 | -40.00544 | 31880 ft | 448 kts | 216° |
| 2026-05-06 20:29 | -14.38205 | -40.02444 | 32212 ft | 446 kts | 216° |
| 2026-05-06 20:30 | -14.40705 | -40.04336 | 32525 ft | 444 kts | 216° |
| 2026-05-06 20:30 | -14.45672 | -40.08089 | 33184 ft | 441 kts | 216° |
| 2026-05-06 20:30 | -14.48145 | -40.09955 | 33501 ft | 439 kts | 216° |
| 2026-05-06 20:31 | -14.50608 | -40.11817 | 33837 ft | 437 kts | 216° |
| 2026-05-06 20:31 | -14.53062 | -40.13676 | 34065 ft | 437 kts | 216° |
| 2026-05-06 20:31 | -14.55509 | -40.15535 | 34114 ft | 436 kts | 216° |
| 2026-05-06 20:32 | -14.60361 | -40.19219 | 34112 ft | 436 kts | 216° |
| 2026-05-06 20:32 | -14.65248 | -40.22933 | 34120 ft | 436 kts | 216° |
| 2026-05-06 20:33 | -14.70138 | -40.26642 | 34121 ft | 435 kts | 216° |
| 2026-05-06 20:33 | -14.75032 | -40.30341 | 34122 ft | 435 kts | 215° |
| 2026-05-06 20:34 | -14.79916 | -40.34037 | 34132 ft | 435 kts | 215° |
| 2026-05-06 20:34 | -14.84793 | -40.37751 | 34134 ft | 436 kts | 216° |
| 2026-05-06 20:35 | -14.89673 | -40.41471 | 34133 ft | 436 kts | 215° |
| 2026-05-06 20:35 | -14.94518 | -40.45163 | 34141 ft | 435 kts | 215° |
| 2026-05-06 20:36 | -14.99397 | -40.48878 | 34142 ft | 435 kts | 216° |
| 2026-05-06 20:36 | -15.04277 | -40.52597 | 34139 ft | 435 kts | 215° |
| 2026-05-06 20:37 | -15.09149 | -40.56309 | 34136 ft | 435 kts | 216° |
| 2026-05-06 20:37 | -15.14025 | -40.60024 | 34136 ft | 434 kts | 215° |
| 2026-05-06 20:38 | -15.18890 | -40.63742 | 34133 ft | 434 kts | 215° |
| 2026-05-06 20:38 | -15.23751 | -40.67451 | 34139 ft | 434 kts | 215° |
| 2026-05-06 20:39 | -15.28622 | -40.71166 | 34135 ft | 434 kts | 215° |
| 2026-05-06 20:39 | -15.33484 | -40.74884 | 34141 ft | 434 kts | 215° |
| 2026-05-06 20:40 | -15.38303 | -40.78576 | 34140 ft | 434 kts | 215° |
| 2026-05-06 20:40 | -15.43172 | -40.82296 | 34142 ft | 434 kts | 215° |
| 2026-05-06 20:41 | -15.48030 | -40.86015 | 34146 ft | 434 kts | 215° |
| 2026-05-06 20:41 | -15.52887 | -40.89735 | 34141 ft | 434 kts | 215° |
| 2026-05-06 20:42 | -15.57740 | -40.93464 | 34147 ft | 434 kts | 215° |
| 2026-05-06 20:42 | -15.62595 | -40.97191 | 34152 ft | 434 kts | 215° |
| 2026-05-06 20:43 | -15.67449 | -41.00912 | 34148 ft | 433 kts | 215° |
| 2026-05-06 20:43 | -15.72292 | -41.04628 | 34141 ft | 433 kts | 215° |
| 2026-05-06 20:44 | -15.77126 | -41.08348 | 34147 ft | 432 kts | 215° |
| 2026-05-06 20:44 | -15.81951 | -41.12068 | 34145 ft | 432 kts | 215° |
| 2026-05-06 20:45 | -15.86749 | -41.15763 | 34141 ft | 432 kts | 215° |
| 2026-05-06 20:45 | -15.91575 | -41.19474 | 34142 ft | 431 kts | 215° |
| 2026-05-06 20:46 | -15.96406 | -41.23183 | 34146 ft | 432 kts | 215° |
| 2026-05-06 20:46 | -16.01233 | -41.26897 | 34149 ft | 432 kts | 215° |
| 2026-05-06 20:47 | -16.06058 | -41.30627 | 34149 ft | 431 kts | 215° |
| 2026-05-06 20:47 | -16.10874 | -41.34351 | 34151 ft | 431 kts | 215° |
| 2026-05-06 20:48 | -16.15688 | -41.38063 | 34152 ft | 431 kts | 215° |
| 2026-05-06 20:48 | -16.20470 | -41.41752 | 34149 ft | 430 kts | 215° |
| 2026-05-06 20:49 | -16.25273 | -41.45466 | 34151 ft | 430 kts | 215° |
| 2026-05-06 20:49 | -16.30069 | -41.49179 | 34149 ft | 429 kts | 215° |
| 2026-05-06 20:50 | -16.34860 | -41.52885 | 34149 ft | 429 kts | 215° |
| 2026-05-06 20:50 | -16.39652 | -41.56592 | 34150 ft | 428 kts | 215° |
| 2026-05-06 20:51 | -16.44425 | -41.60296 | 34149 ft | 427 kts | 215° |
| 2026-05-06 20:51 | -16.49192 | -41.63998 | 34150 ft | 427 kts | 215° |
| 2026-05-06 20:52 | -16.53948 | -41.67693 | 34148 ft | 426 kts | 214° |
| 2026-05-06 20:52 | -16.58674 | -41.71361 | 34148 ft | 425 kts | 214° |
| 2026-05-06 20:53 | -16.63421 | -41.75051 | 34145 ft | 425 kts | 214° |
| 2026-05-06 20:53 | -16.68168 | -41.78746 | 34144 ft | 424 kts | 214° |
| 2026-05-06 20:54 | -16.72907 | -41.82431 | 34148 ft | 424 kts | 214° |
| 2026-05-06 20:54 | -16.77633 | -41.86103 | 34148 ft | 423 kts | 214° |
| 2026-05-06 20:55 | -16.82325 | -41.89753 | 34147 ft | 423 kts | 214° |
| 2026-05-06 20:55 | -16.87034 | -41.93431 | 34142 ft | 422 kts | 214° |
| 2026-05-06 20:56 | -16.91741 | -41.97100 | 34145 ft | 422 kts | 214° |
| 2026-05-06 20:56 | -16.96439 | -42.00772 | 34142 ft | 421 kts | 214° |
| 2026-05-06 20:57 | -17.01131 | -42.04439 | 34139 ft | 421 kts | 214° |
| 2026-05-06 20:57 | -17.05823 | -42.08108 | 34146 ft | 421 kts | 214° |
| 2026-05-06 20:58 | -17.10515 | -42.11782 | 34144 ft | 421 kts | 214° |
| 2026-05-06 20:58 | -17.15205 | -42.15450 | 34151 ft | 421 kts | 214° |
| 2026-05-06 20:59 | -17.19893 | -42.19119 | 34153 ft | 421 kts | 214° |
| 2026-05-06 20:59 | -17.24579 | -42.22783 | 34153 ft | 420 kts | 214° |
| 2026-05-06 21:00 | -17.29227 | -42.26427 | 34151 ft | 420 kts | 214° |
| 2026-05-06 21:00 | -17.33898 | -42.30100 | 34163 ft | 419 kts | 214° |
| 2026-05-06 21:01 | -17.37771 | -42.33147 | 34167 ft | 418 kts | 214° |
| 2026-05-06 21:01 | -17.42424 | -42.36806 | 34170 ft | 418 kts | 214° |
| 2026-05-06 21:02 | -17.47071 | -42.40460 | 34168 ft | 418 kts | 214° |
| 2026-05-06 21:02 | -17.51717 | -42.44115 | 34171 ft | 418 kts | 214° |
| 2026-05-06 21:03 | -17.56359 | -42.47767 | 34170 ft | 417 kts | 214° |
| 2026-05-06 21:03 | -17.61004 | -42.51419 | 34173 ft | 417 kts | 214° |
| 2026-05-06 21:04 | -17.65638 | -42.55078 | 34177 ft | 417 kts | 215° |
| 2026-05-06 21:04 | -17.70235 | -42.58719 | 34181 ft | 417 kts | 214° |
| 2026-05-06 21:05 | -17.74863 | -42.62372 | 34179 ft | 416 kts | 214° |
| 2026-05-06 21:05 | -17.79483 | -42.66023 | 34182 ft | 415 kts | 214° |
| 2026-05-06 21:06 | -17.84096 | -42.69663 | 34184 ft | 415 kts | 214° |
| 2026-05-06 21:06 | -17.88704 | -42.73302 | 34181 ft | 414 kts | 214° |
| 2026-05-06 21:07 | -17.93306 | -42.76948 | 34179 ft | 414 kts | 214° |
| 2026-05-06 21:07 | -17.97894 | -42.80585 | 34182 ft | 413 kts | 214° |
| 2026-05-06 21:08 | -18.02484 | -42.84219 | 34178 ft | 413 kts | 214° |
| 2026-05-06 21:08 | -18.07066 | -42.87849 | 34175 ft | 412 kts | 214° |
| 2026-05-06 21:09 | -18.11640 | -42.91478 | 34177 ft | 412 kts | 214° |
| 2026-05-06 21:09 | -18.16212 | -42.95113 | 34177 ft | 412 kts | 214° |
| 2026-05-06 21:10 | -18.20777 | -42.98743 | 34177 ft | 411 kts | 214° |
| 2026-05-06 21:10 | -18.25340 | -43.02369 | 34178 ft | 411 kts | 214° |
| 2026-05-06 21:11 | -18.29895 | -43.05998 | 34179 ft | 410 kts | 214° |
| 2026-05-06 21:11 | -18.34418 | -43.09596 | 34177 ft | 410 kts | 214° |
| 2026-05-06 21:12 | -18.38970 | -43.13226 | 34175 ft | 410 kts | 214° |
| 2026-05-06 21:12 | -18.43516 | -43.16840 | 34176 ft | 409 kts | 214° |
| 2026-05-06 21:13 | -18.48069 | -43.20443 | 34177 ft | 409 kts | 214° |
| 2026-05-06 21:13 | -18.52615 | -43.24044 | 34172 ft | 409 kts | 214° |
| 2026-05-06 21:14 | -18.57163 | -43.27646 | 34174 ft | 408 kts | 214° |
| 2026-05-06 21:14 | -18.61671 | -43.31220 | 33838 ft | 397 kts | 214° |
| 2026-05-06 21:14 | -18.63847 | -43.32952 | 33680 ft | 385 kts | 214° |
| 2026-05-06 21:15 | -18.65969 | -43.34641 | 33331 ft | 379 kts | 214° |
| 2026-05-06 21:15 | -18.68096 | -43.36330 | 32287 ft | 389 kts | 214° |
| 2026-05-06 21:15 | -18.70298 | -43.38074 | 31213 ft | 402 kts | 215° |
| 2026-05-06 21:15 | -18.72542 | -43.39852 | 30167 ft | 414 kts | 215° |
| 2026-05-06 21:16 | -18.74885 | -43.41714 | 29022 ft | 431 kts | 216° |
| 2026-05-06 21:16 | -18.77348 | -43.43675 | 28094 ft | 453 kts | 216° |
| 2026-05-06 21:16 | -18.79883 | -43.45693 | 26984 ft | 460 kts | 216° |
| 2026-05-06 21:16 | -18.82461 | -43.47749 | 25863 ft | 467 kts | 216° |
| 2026-05-06 21:17 | -18.85043 | -43.49809 | 25350 ft | 460 kts | 216° |
| 2026-05-06 21:17 | -18.87574 | -43.51829 | 24874 ft | 452 kts | 216° |
| 2026-05-06 21:17 | -18.90070 | -43.53819 | 24280 ft | 448 kts | 216° |
| 2026-05-06 21:17 | -18.92556 | -43.55796 | 23639 ft | 446 kts | 216° |
| 2026-05-06 21:18 | -18.95026 | -43.57761 | 22910 ft | 443 kts | 216° |
| 2026-05-06 21:18 | -18.97482 | -43.59720 | 22226 ft | 440 kts | 216° |
| 2026-05-06 21:18 | -18.99914 | -43.61663 | 21495 ft | 437 kts | 216° |
| 2026-05-06 21:18 | -19.02357 | -43.63611 | 20587 ft | 441 kts | 216° |
| 2026-05-06 21:19 | -19.04810 | -43.65556 | 19876 ft | 440 kts | 216° |
| 2026-05-06 21:19 | -19.07252 | -43.67480 | 19227 ft | 437 kts | 216° |
| 2026-05-06 21:19 | -19.09677 | -43.69386 | 18703 ft | 427 kts | 215° |
| 2026-05-06 21:19 | -19.11943 | -43.71169 | 18446 ft | 395 kts | 215° |
| 2026-05-06 21:20 | -19.14058 | -43.72839 | 18255 ft | 365 kts | 215° |
| 2026-05-06 21:20 | -19.16029 | -43.74395 | 17881 ft | 344 kts | 215° |
| 2026-05-06 21:20 | -19.17923 | -43.75887 | 17171 ft | 336 kts | 215° |
| 2026-05-06 21:20 | -19.19785 | -43.77352 | 16379 ft | 332 kts | 215° |
| 2026-05-06 21:21 | -19.21632 | -43.78804 | 15600 ft | 330 kts | 216° |
| 2026-05-06 21:21 | -19.23468 | -43.80247 | 14842 ft | 327 kts | 216° |
| 2026-05-06 21:21 | -19.25286 | -43.81682 | 14099 ft | 325 kts | 217° |
| 2026-05-06 21:21 | -19.26938 | -43.83296 | 13317 ft | 322 kts | 227° |
| 2026-05-06 21:22 | -19.28469 | -43.85014 | 12542 ft | 319 kts | 226° |
| 2026-05-06 21:22 | -19.29982 | -43.86713 | 11819 ft | 315 kts | 226° |
| 2026-05-06 21:22 | -19.31478 | -43.88392 | 11127 ft | 311 kts | 226° |
| 2026-05-06 21:22 | -19.32950 | -43.90043 | 10545 ft | 309 kts | 226° |
| 2026-05-06 21:23 | -19.34434 | -43.91708 | 10179 ft | 309 kts | 226° |
| 2026-05-06 21:23 | -19.35902 | -43.93355 | 9823 ft | 307 kts | 226° |
| 2026-05-06 21:23 | -19.37365 | -43.94997 | 9441 ft | 305 kts | 226° |
| 2026-05-06 21:23 | -19.38826 | -43.96633 | 8856 ft | 310 kts | 226° |
| 2026-05-06 21:24 | -19.40298 | -43.98280 | 8294 ft | 300 kts | 226° |
| 2026-05-06 21:24 | -19.41673 | -43.99823 | 8125 ft | 276 kts | 226° |
| 2026-05-06 21:24 | -19.42799 | -44.01088 | 8067 ft | 259 kts | 226° |
| 2026-05-06 21:24 | -19.43983 | -44.02442 | 7811 ft | 253 kts | 227° |
| 2026-05-06 21:25 | -19.45154 | -44.03841 | 7376 ft | 254 kts | 227° |
| 2026-05-06 21:25 | -19.46313 | -44.05243 | 7021 ft | 251 kts | 226° |
| 2026-05-06 21:25 | -19.47641 | -44.06366 | 6686 ft | 239 kts | 207° |
| 2026-05-06 21:25 | -19.49150 | -44.06978 | 6363 ft | 226 kts | 190° |
| 2026-05-06 21:26 | -19.50679 | -44.07102 | 5944 ft | 218 kts | 173° |
| 2026-05-06 21:26 | -19.52157 | -44.06772 | 5390 ft | 214 kts | 156° |
| 2026-05-06 21:26 | -19.53415 | -44.06047 | 5037 ft | 197 kts | 141° |
| 2026-05-06 21:26 | -19.54402 | -44.05161 | 4797 ft | 177 kts | 136° |
| 2026-05-06 21:27 | -19.55286 | -44.04347 | 4581 ft | 160 kts | 135° |
| 2026-05-06 21:27 | -19.56105 | -44.03590 | 4372 ft | 153 kts | 135° |
| 2026-05-06 21:27 | -19.56890 | -44.02865 | 4186 ft | 150 kts | 135° |
| 2026-05-06 21:27 | -19.57682 | -44.02134 | 3996 ft | 149 kts | 135° |
| 2026-05-06 21:28 | -19.58450 | -44.01422 | 3817 ft | 148 kts | 136° |
| 2026-05-06 21:28 | -19.59232 | -44.00698 | 3643 ft | 150 kts | 138° |
| 2026-05-06 21:28 | -19.60022 | -43.99970 | 3427 ft | 150 kts | 138° |
| 2026-05-06 21:28 | -19.60813 | -43.99241 | 3249 ft | 151 kts | 138° |
| 2026-05-06 21:29 | -19.61612 | -43.98504 | 3094 ft | 153 kts | 139° |
| 2026-05-06 21:29 | -19.62411 | -43.97763 | 2858 ft | 151 kts | 139° |
| 2026-05-06 21:29 | -19.63127 | -43.97100 | 2831 ft | 106 kts | 139° |
| 2026-05-06 21:29 | -19.63465 | -43.96789 | 2829 ft | 41 kts | 139° |
| 2026-05-06 21:30 | -19.63587 | -43.96590 | 2830 ft | 17 kts | 108° |
| 2026-05-06 21:30 | -19.63625 | -43.96480 | 2832 ft | 15 kts | 110° |
| 2026-05-06 21:30 | -19.63634 | -43.96383 | 2831 ft | 13 kts | 69° |
| 2026-05-06 21:30 | -19.63573 | -43.96335 | 2831 ft | 11 kts | 24° |
| 2026-05-06 21:31 | -19.63511 | -43.96301 | 2831 ft | 9 kts | 28° |
| 2026-05-06 21:31 | -19.63460 | -43.96318 | 2831 ft | 12 kts | 298° |
| 2026-05-06 21:31 | -19.63413 | -43.96412 | 2834 ft | 8 kts | 292° |
| 2026-05-06 21:31 | -19.63433 | -43.96455 | 2834 ft | 6 kts | 234° |
| 2026-05-06 21:32 | -19.63448 | -43.96474 | 2833 ft | 0 kts | 230° |